createdAt,value
2019-05-25T00:00:33.402Z,70.57
2019-05-25T00:05:34.920Z,70.19
2019-05-25T00:10:36.713Z,71.04
2019-05-25T00:15:38.344Z,70.62
2019-05-25T00:20:39.847Z,72.06
2019-05-25T00:25:41.716Z,71.88
2019-05-25T00:30:43.211Z,71.75
2019-05-25T00:35:44.708Z,71.79
2019-05-25T00:40:46.454Z,72.88
2019-05-25T00:45:48.033Z,73.19
2019-05-25T00:50:49.461Z,73.69
2019-05-25T00:55:51.244Z,72.56
2019-05-25T01:00:53.137Z,73.11
2019-05-25T01:05:54.640Z,73.63
2019-05-25T01:10:57.629Z,73.29
2019-05-25T01:15:59.495Z,73.42
2019-05-25T01:21:01.090Z,73.36
2019-05-25T01:26:02.505Z,73.20
2019-05-25T01:31:04.060Z,72.73
2019-05-25T01:36:05.901Z,72.15
2019-05-25T01:41:07.414Z,72.40
2019-05-25T01:46:09.881Z,74.18
2019-05-25T01:51:11.361Z,73.68
2019-05-25T01:56:12.870Z,73.07
2019-05-25T02:01:14.400Z,73.93
2019-05-25T02:06:16.141Z,72.89
2019-05-25T02:11:18.106Z,73.25
2019-05-25T02:16:19.653Z,73.35
2019-05-25T02:21:21.170Z,73.02
2019-05-25T02:26:22.738Z,73.53
2019-05-25T02:31:24.000Z,74.18
2019-05-25T02:36:25.504Z,74.54
2019-05-25T02:41:27.124Z,74.79
2019-05-25T02:46:28.852Z,75.70
2019-05-25T02:51:30.350Z,75.76
2019-05-25T02:56:32.162Z,75.44
2019-05-25T03:01:33.946Z,75.03
2019-05-25T03:06:35.428Z,75.10
2019-05-25T03:11:37.184Z,74.32
2019-05-25T03:16:39.146Z,73.68
2019-05-25T03:21:40.540Z,73.12
2019-05-25T03:26:42.657Z,72.75
2019-05-25T03:31:45.910Z,71.85
2019-05-25T03:36:47.405Z,72.04
2019-05-25T03:41:48.921Z,71.62
2019-05-25T03:46:50.443Z,72.57
2019-05-25T03:51:52.186Z,71.87
2019-05-25T03:56:53.706Z,74.76
2019-05-25T04:01:55.437Z,73.98
2019-05-25T04:06:56.931Z,73.70
2019-05-25T04:11:58.841Z,74.36
2019-05-25T04:17:00.376Z,74.63
2019-05-25T04:22:01.886Z,75.35
2019-05-25T04:27:03.444Z,75.89
2019-05-25T04:32:05.021Z,75.92
2019-05-25T04:37:06.487Z,76.43
2019-05-25T04:42:08.327Z,76.31
2019-05-25T04:47:24.356Z,76.75
2019-05-25T04:52:13.205Z,75.78
2019-05-25T04:57:14.771Z,75.49
2019-05-25T05:02:16.328Z,75.15
2019-05-25T05:07:19.262Z,74.86
2019-05-25T05:12:20.728Z,74.56
2019-05-25T05:17:22.262Z,74.09
2019-05-25T05:22:23.714Z,73.20
2019-05-25T05:27:25.128Z,73.35
2019-05-25T05:32:27.959Z,72.97
2019-05-25T05:37:29.717Z,72.57
2019-05-25T05:42:31.520Z,71.68
2019-05-25T05:47:34.098Z,71.30
2019-05-25T05:52:36.352Z,72.66
2019-05-25T05:57:38.283Z,71.83
2019-05-25T06:02:39.779Z,72.34
2019-05-25T06:07:41.374Z,70.71
2019-05-25T06:12:42.891Z,71.41
2019-05-25T06:17:44.898Z,70.03
2019-05-25T06:22:46.761Z,70.28
2019-05-25T06:27:48.273Z,68.74
2019-05-25T06:32:49.963Z,70.38
2019-05-25T06:37:51.499Z,70.84
2019-05-25T06:42:53.134Z,70.22
2019-05-25T06:47:54.924Z,69.39
2019-05-25T06:52:57.978Z,67.86
2019-05-25T06:58:00.123Z,66.68
2019-05-25T07:03:02.104Z,67.21
2019-05-25T07:08:04.003Z,67.42
2019-05-25T07:13:06.707Z,66.23
2019-05-25T07:18:08.498Z,64.26
2019-05-25T07:23:09.954Z,63.56
2019-05-25T07:28:11.460Z,62.28
2019-05-25T07:33:13.004Z,61.84
2019-05-25T07:38:14.933Z,61.25
2019-05-25T07:43:17.430Z,59.68
2019-05-25T07:48:18.966Z,59.22
2019-05-25T07:53:20.969Z,57.82
2019-05-25T07:58:22.515Z,58.11
2019-05-25T08:03:24.047Z,55.77
2019-05-25T08:08:25.969Z,53.07
2019-05-25T08:13:27.773Z,52.56
2019-05-25T08:18:30.011Z,52.37
2019-05-25T08:23:31.780Z,50.80
2019-05-25T08:28:33.438Z,51.29
2019-05-25T08:33:34.761Z,50.38
2019-05-25T08:38:36.302Z,48.98
2019-05-25T08:43:37.688Z,49.01
2019-05-25T08:48:39.225Z,48.92
2019-05-25T08:53:42.343Z,48.85
2019-05-25T08:58:48.526Z,48.78
2019-05-25T09:03:47.779Z,48.44
2019-05-25T09:08:49.529Z,47.77
2019-05-25T09:13:51.281Z,47.23
2019-05-25T09:18:52.843Z,47.12
2019-05-25T09:23:54.383Z,46.76
2019-05-25T09:29:04.369Z,44.98
2019-05-25T09:33:59.375Z,44.50
2019-05-25T09:39:01.494Z,45.48
2019-05-25T09:44:03.162Z,44.17
2019-05-25T09:49:06.363Z,44.79
2019-05-25T09:54:08.030Z,44.34
2019-05-25T09:59:19.782Z,46.20
2019-05-25T10:04:12.974Z,46.66
2019-05-25T10:09:14.496Z,45.39
2019-05-25T10:14:16.320Z,46.05
2019-05-25T10:19:18.402Z,47.15
2019-05-25T10:24:20.198Z,43.02
2019-05-25T10:29:36.203Z,43.09
2019-05-25T10:34:25.750Z,44.57
2019-05-25T10:39:27.515Z,44.85
2019-05-25T10:44:29.238Z,42.87
2019-05-25T10:49:30.690Z,41.48
2019-05-25T10:54:31.970Z,38.30
2019-05-25T10:59:33.459Z,40.26
2019-05-25T11:04:35.261Z,39.04
2019-05-25T11:09:36.665Z,38.85
2019-05-25T11:14:38.343Z,41.61
2019-05-25T11:19:39.902Z,40.26
2019-05-25T11:24:41.511Z,41.92
2019-05-25T11:29:43.110Z,41.29
2019-05-25T11:34:45.262Z,42.02
2019-05-25T11:39:47.445Z,41.20
2019-05-25T11:44:49.519Z,43.54
2019-05-25T11:49:51.040Z,41.52
2019-05-25T11:54:52.607Z,40.96
2019-05-25T11:59:54.332Z,40.68
2019-05-25T12:04:56.283Z,40.39
2019-05-25T12:09:57.922Z,38.94
2019-05-25T12:14:59.466Z,37.95
2019-05-25T12:20:01.026Z,36.18
2019-05-25T12:25:03.193Z,37.57
2019-05-25T12:30:04.732Z,37.57
2019-05-25T12:35:06.409Z,37.51
2019-05-25T12:40:07.960Z,37.05
2019-05-25T12:45:09.608Z,38.00
2019-05-25T12:50:11.163Z,37.50
2019-05-25T12:55:12.708Z,37.52
2019-05-25T13:00:16.363Z,37.35
2019-05-25T13:05:32.659Z,38.33
2019-05-25T13:10:21.614Z,39.21
2019-05-25T13:15:23.501Z,40.73
2019-05-25T13:20:25.211Z,40.99
2019-05-25T13:25:26.578Z,41.24
2019-05-25T13:30:28.024Z,41.70
2019-05-25T13:35:29.498Z,42.03
2019-05-25T13:40:31.843Z,42.07
2019-05-25T13:45:33.585Z,41.31
2019-05-25T13:50:35.113Z,41.21
2019-05-25T13:55:36.665Z,40.79
2019-05-25T14:00:38.127Z,40.33
2019-05-25T14:05:39.672Z,39.91
2019-05-25T14:10:41.389Z,39.85
2019-05-25T14:15:43.021Z,39.99
2019-05-25T14:20:44.538Z,39.29
2019-05-25T14:25:46.402Z,39.03
2019-05-25T14:30:48.311Z,40.37
2019-05-25T14:35:50.083Z,40.31
2019-05-25T14:40:51.592Z,40.91
2019-05-25T14:45:53.651Z,39.99
2019-05-25T14:50:55.460Z,39.24
2019-05-25T14:55:59.910Z,39.80
2019-05-25T15:01:01.545Z,39.28
2019-05-25T15:06:03.295Z,38.80
2019-05-25T15:11:04.885Z,39.91
2019-05-25T15:16:06.418Z,40.55
2019-05-25T15:21:08.145Z,40.01
2019-05-25T15:26:10.062Z,40.06
2019-05-25T15:31:11.623Z,39.28
2019-05-25T15:36:13.024Z,40.70
2019-05-25T15:41:15.225Z,40.33
2019-05-25T15:46:16.755Z,39.77
2019-05-25T15:51:18.624Z,40.38
2019-05-25T15:56:20.207Z,40.12
2019-05-25T16:01:21.782Z,40.08
2019-05-25T16:06:24.024Z,38.67
2019-05-25T16:11:26.751Z,39.03
2019-05-25T16:16:30.150Z,40.29
2019-05-25T16:21:32.275Z,39.47
2019-05-25T16:26:45.627Z,39.24
2019-05-25T16:31:37.317Z,39.08
2019-05-25T16:36:39.188Z,39.35
2019-05-25T16:41:41.379Z,40.04
2019-05-25T16:46:43.203Z,41.03
2019-05-25T16:51:44.647Z,41.75
2019-05-25T16:56:46.236Z,42.10
2019-05-25T17:01:48.942Z,42.64
2019-05-25T17:06:50.353Z,41.55
2019-05-25T17:11:51.604Z,40.91
2019-05-25T17:16:53.565Z,40.67
2019-05-25T17:21:55.227Z,40.97
2019-05-25T17:26:57.472Z,41.20
2019-05-25T17:31:59.408Z,37.92
2019-05-25T17:37:00.880Z,38.94
2019-05-25T17:42:02.651Z,40.00
2019-05-25T17:47:04.484Z,42.09
2019-05-25T17:52:05.966Z,42.67
2019-05-25T17:57:07.521Z,43.36
2019-05-25T18:02:09.081Z,44.07
2019-05-25T18:07:10.802Z,44.18
2019-05-25T18:12:12.437Z,44.90
2019-05-25T18:17:14.391Z,44.41
2019-05-25T18:22:16.030Z,44.93
2019-05-25T18:27:17.585Z,45.64
2019-05-25T18:32:19.178Z,46.12
2019-05-25T18:37:20.988Z,46.30
2019-05-25T18:42:22.640Z,47.00
2019-05-25T18:47:25.367Z,47.57
2019-05-25T18:52:27.268Z,48.09
2019-05-25T18:57:28.701Z,48.63
2019-05-25T19:02:30.719Z,49.68
2019-05-25T19:07:32.726Z,50.33
2019-05-25T19:12:34.306Z,51.14
2019-05-25T19:17:36.180Z,51.63
2019-05-25T19:22:37.824Z,51.79
2019-05-25T19:27:39.399Z,52.77
2019-05-25T19:32:41.606Z,52.64
2019-05-25T19:37:43.186Z,52.88
2019-05-25T19:42:48.907Z,53.54
2019-05-25T19:47:49.086Z,53.89
2019-05-25T19:52:50.649Z,54.13
2019-05-25T19:57:52.568Z,54.71
2019-05-25T20:02:54.044Z,55.10
2019-05-25T20:07:56.743Z,55.31
2019-05-25T20:12:58.682Z,55.27
2019-05-25T20:18:00.561Z,55.80
2019-05-25T20:23:02.150Z,56.23
2019-05-25T20:28:03.773Z,57.03
2019-05-25T20:33:05.281Z,56.85
2019-05-25T20:38:07.126Z,56.69
2019-05-25T20:43:09.003Z,57.04
2019-05-25T20:48:10.994Z,57.57
2019-05-25T20:53:12.790Z,57.30
2019-05-25T20:58:14.658Z,57.71
2019-05-25T21:03:16.258Z,58.09
2019-05-25T21:08:17.893Z,58.99
2019-05-25T21:13:19.519Z,59.21
2019-05-25T21:18:21.177Z,59.39
2019-05-25T21:23:22.826Z,59.02
2019-05-25T21:28:24.570Z,59.39
2019-05-25T21:33:26.432Z,59.31
2019-05-25T21:38:28.285Z,59.26
2019-05-25T21:43:30.176Z,60.04
2019-05-25T21:48:32.060Z,60.92
2019-05-25T21:53:33.562Z,60.95
2019-05-25T21:58:35.127Z,60.96
2019-05-25T22:03:37.111Z,60.90
2019-05-25T22:08:39.027Z,60.56
2019-05-25T22:13:40.544Z,60.78
2019-05-25T22:18:42.199Z,59.98
2019-05-25T22:23:43.744Z,61.48
2019-05-25T22:28:45.531Z,62.42
2019-05-25T22:33:47.696Z,62.92
2019-05-25T22:38:49.261Z,63.79
2019-05-25T22:43:51.100Z,64.66
2019-05-25T22:48:53.071Z,65.06
2019-05-25T22:53:54.713Z,64.24
2019-05-25T22:58:56.243Z,64.86
2019-05-25T23:03:58.097Z,64.29
2019-05-25T23:08:59.640Z,64.42
2019-05-25T23:14:01.404Z,64.95
2019-05-25T23:19:02.932Z,65.88
2019-05-25T23:24:04.238Z,65.32
2019-05-25T23:29:05.975Z,65.08
2019-05-25T23:34:08.001Z,65.34
2019-05-25T23:39:09.536Z,65.06
2019-05-25T23:44:11.090Z,65.25
2019-05-25T23:49:12.600Z,65.28
2019-05-25T23:54:14.626Z,65.40
2019-05-25T23:59:16.123Z,64.55
